Time;durP1;ratioP1;P1;durP2;ratioP2;P2;SDS_P1;SDS_P2;PMS_P1;PMS_P2;Temp;Humidity;BMP_temperature;BMP_pressure;BME280_temperature;BME280_humidity;BME280_pressure;Samples;Min_cycle;Max_cycle;Signal;HPM_P1;HPM_P2
2021/04/27 00:02:16;;;;;;;5.97;4.10;;;;;;;12.36;53.02;99779.28;5046585;28;20024;-23
2021/04/27 00:04:42;;;;;;;8.95;4.78;;;;;;;12.56;52.79;99783.38;5046082;28;20037;-21
2021/04/27 00:07:07;;;;;;;6.72;4.43;;;;;;;12.83;52.67;99784.44;5046643;28;20036;-21
2021/04/27 00:09:33;;;;;;;8.10;4.60;;;;;;;12.65;51.81;99781.97;5046154;28;20082;-21
2021/04/27 00:11:58;;;;;;;7.60;4.53;;;;;;;12.45;52.43;99782.38;5046293;28;20052;-20
2021/04/27 00:14:24;;;;;;;7.15;4.90;;;;;;;12.60;52.19;99789.88;5049140;28;20041;-20
2021/04/27 00:16:50;;;;;;;9.63;4.50;;;;;;;12.50;52.23;99784.34;5049901;28;20025;-21
2021/04/27 00:19:15;;;;;;;9.55;4.47;;;;;;;12.39;52.58;99781.47;5049911;28;20052;-20
2021/04/27 00:21:41;;;;;;;10.20;4.18;;;;;;;12.35;53.14;99780.31;5049931;28;20025;-21
2021/04/27 00:24:06;;;;;;;6.40;4.10;;;;;;;12.56;52.54;99791.41;5049609;28;20036;-22
2021/04/27 00:26:32;;;;;;;7.07;4.18;;;;;;;12.53;52.48;99786.56;5049387;28;20025;-21
2021/04/27 00:28:57;;;;;;;10.93;4.22;;;;;;;12.66;52.51;99796.94;5049804;28;20068;-22
2021/04/27 00:31:23;;;;;;;7.93;4.38;;;;;;;12.90;51.78;99807.56;5049837;28;20548;-21
2021/04/27 00:33:48;;;;;;;6.50;3.90;;;;;;;12.95;50.87;99803.09;5049588;28;20041;-23
2021/04/27 00:36:14;;;;;;;6.97;3.83;;;;;;;12.93;51.35;99812.41;5049549;28;20556;-23
2021/04/27 00:38:39;;;;;;;7.90;4.30;;;;;;;12.90;51.50;99815.59;5049491;28;20086;-23
2021/04/27 00:41:05;;;;;;;9.90;4.30;;;;;;;12.78;51.14;99802.25;5049172;28;20025;-23
2021/04/27 00:43:30;;;;;;;8.00;4.25;;;;;;;12.74;51.52;99807.28;5049344;28;20037;-22
2021/04/27 00:45:56;;;;;;;8.00;4.53;;;;;;;12.62;51.76;99782.44;5049439;28;20059;-22
2021/04/27 00:48:21;;;;;;;8.27;4.40;;;;;;;12.51;52.44;99788.66;5049301;28;20056;-22
2021/04/27 00:50:47;;;;;;;7.78;4.32;;;;;;;12.52;51.91;99777.69;5049185;28;20033;-23
2021/04/27 00:53:12;;;;;;;7.05;3.83;;;;;;;12.54;51.69;99788.16;5049358;28;20033;-21
2021/04/27 00:55:38;;;;;;;7.03;4.20;;;;;;;12.72;50.90;99809.38;5049224;28;20032;-22
2021/04/27 00:58:03;;;;;;;6.07;3.60;;;;;;;12.80;51.09;99817.03;5048953;28;20037;-22
2021/04/27 01:00:34;;;;;;;7.53;4.10;;;;;;;12.87;50.76;99814.19;5049110;28;20029;-22
2021/04/27 01:02:59;;;;;;;7.15;4.30;;;;;;;12.39;51.86;99807.41;5049300;28;20572;-22
2021/04/27 01:05:26;;;;;;;7.13;3.92;;;;;;;12.50;52.48;99811.09;5049011;28;20033;-22
2021/04/27 01:07:52;;;;;;;6.28;3.97;;;;;;;12.67;51.01;99806.63;5048905;28;20057;-22
2021/04/27 01:10:19;;;;;;;7.30;4.20;;;;;;;12.79;50.81;99788.66;5048670;28;20068;-21
2021/04/27 01:12:49;;;;;;;6.93;3.90;;;;;;;12.69;51.04;99788.47;5047272;28;20025;-22
2021/04/27 01:15:21;;;;;;;7.75;4.35;;;;;;;12.56;51.39;99794.88;5047917;28;20029;-22
2021/04/27 01:17:48;;;;;;;7.10;3.78;;;;;;;12.37;52.14;99804.97;5031067;28;20108;-22
2021/04/27 01:20:14;;;;;;;6.85;3.85;;;;;;;12.04;52.46;99800.28;5048487;28;20413;-21
2021/04/27 01:22:57;;;;;;;7.38;4.10;;;;;;;12.27;52.19;99807.44;5048592;28;20046;-21
2021/04/27 01:25:45;;;;;;;6.28;4.18;;;;;;;12.36;52.10;99807.88;5048596;28;20033;-22
2021/04/27 01:28:10;;;;;;;7.40;3.88;;;;;;;12.73;51.80;99821.72;5047624;28;20031;-22
2021/04/27 01:30:38;;;;;;;8.13;4.03;;;;;;;12.63;51.41;99834.91;5030457;28;20029;-22
2021/04/27 01:33:13;;;;;;;7.47;4.13;;;;;;;12.66;51.71;99837.09;5048281;28;20123;-22
2021/04/27 01:35:38;;;;;;;8.32;4.43;;;;;;;12.62;51.92;99815.34;5047336;28;20047;-21
2021/04/27 01:38:04;;;;;;;7.32;4.28;;;;;;;12.72;52.17;99838.81;5047118;28;20037;-21
2021/04/27 01:40:30;;;;;;;8.15;4.15;;;;;;;12.96;51.23;99836.84;5030823;28;20036;-22
2021/04/27 01:42:55;;;;;;;8.63;4.20;;;;;;;12.79;51.76;99836.81;5048074;28;20037;-21
2021/04/27 01:45:21;;;;;;;8.52;4.03;;;;;;;12.84;51.05;99823.50;5048358;28;20025;-22
2021/04/27 01:47:47;;;;;;;6.20;3.75;;;;;;;13.30;50.73;99828.06;5047881;28;20033;-22
2021/04/27 01:50:12;;;;;;;6.55;4.40;;;;;;;13.50;49.60;99812.34;5048062;28;20036;-22
2021/04/27 01:52:38;;;;;;;7.15;4.05;;;;;;;13.38;49.87;99828.50;5048000;28;20543;-22
2021/04/27 01:55:05;;;;;;;7.07;4.20;;;;;;;12.74;51.22;99803.78;5048269;28;20052;-22
2021/04/27 01:57:30;;;;;;;6.95;4.05;;;;;;;12.75;51.72;99803.56;5048115;28;20132;-21
2021/04/27 01:59:56;;;;;;;8.77;4.30;;;;;;;12.97;51.02;99824.28;5047887;28;20807;-22
2021/04/27 02:02:21;;;;;;;8.10;4.88;;;;;;;12.68;51.83;99813.59;5047640;28;20041;-22
2021/04/27 02:04:47;;;;;;;8.75;4.07;;;;;;;12.61;52.10;99812.91;5047619;28;20029;-22
2021/04/27 02:07:12;;;;;;;9.50;4.18;;;;;;;12.40;52.88;99809.84;5047717;28;20496;-22
2021/04/27 02:09:37;;;;;;;7.10;3.95;;;;;;;12.55;52.02;99808.53;5047768;28;20106;-21
2021/04/27 02:12:03;;;;;;;8.00;3.95;;;;;;;12.32;52.47;99814.72;5046746;28;20048;-22
2021/04/27 02:14:29;;;;;;;6.20;4.03;;;;;;;12.36;52.96;99806.03;5047800;28;20021;-22
2021/04/27 02:17:15;;;;;;;8.38;4.40;;;;;;;12.15;52.91;99780.72;5047630;28;20066;-21
2021/04/27 02:19:41;;;;;;;6.63;4.00;;;;;;;11.81;53.57;99782.34;5046931;28;20052;-21
2021/04/27 02:22:07;;;;;;;7.40;3.78;;;;;;;11.68;54.99;99798.66;5046323;28;20064;-21
2021/04/27 02:24:34;;;;;;;8.43;4.70;;;;;;;11.99;53.80;99790.28;5046492;28;20082;-24
2021/04/27 02:26:59;;;;;;;9.25;4.32;;;;;;;12.61;52.89;99804.91;5047680;28;20099;-21
2021/04/27 02:29:25;;;;;;;8.57;4.90;;;;;;;12.36;52.55;99787.31;5046140;28;20024;-22
2021/04/27 02:31:51;;;;;;;7.45;4.30;;;;;;;12.23;53.48;99782.22;5029519;28;20041;-22
2021/04/27 02:34:21;;;;;;;9.63;4.38;;;;;;;12.59;52.28;99786.41;5046397;28;20029;-22
2021/04/27 02:36:46;;;;;;;7.55;3.83;;;;;;;12.60;52.04;99784.53;5046910;28;20056;-22
2021/04/27 02:39:12;;;;;;;7.07;3.90;;;;;;;12.06;53.10;99774.94;5047148;28;20060;-21
2021/04/27 02:41:37;;;;;;;8.75;4.35;;;;;;;11.99;53.96;99778.78;5047208;28;20032;-21
2021/04/27 02:44:04;;;;;;;7.70;4.15;;;;;;;11.97;53.79;99781.69;5046978;28;20446;-21
2021/04/27 02:46:29;;;;;;;8.73;3.97;;;;;;;11.99;53.61;99795.66;5047057;28;20393;-22
2021/04/27 02:48:55;;;;;;;7.40;4.35;;;;;;;12.14;52.97;99794.34;5046626;28;20056;-22
2021/04/27 02:51:20;;;;;;;8.73;4.43;;;;;;;12.08;52.99;99788.06;5047184;28;20083;-22
2021/04/27 02:53:46;;;;;;;10.57;4.38;;;;;;;12.23;52.93;99806.28;5045712;28;20119;-22
2021/04/27 02:56:11;;;;;;;7.07;4.05;;;;;;;11.96;53.18;99793.44;5046988;28;20036;-21
2021/04/27 02:58:37;;;;;;;9.13;4.80;;;;;;;11.99;53.62;99795.66;5046700;28;20094;-22
2021/04/27 03:01:02;;;;;;;8.80;5.25;;;;;;;11.97;53.75;99797.75;5046820;28;20025;-21
2021/04/27 03:03:28;;;;;;;12.85;8.55;;;;;;;12.07;53.34;99799.78;5047164;28;20041;-21
2021/04/27 03:05:53;;;;;;;20.05;16.92;;;;;;;11.99;53.17;99787.63;5047315;28;20030;-22
2021/04/27 03:08:19;;;;;;;33.72;14.77;;;;;;;12.00;53.65;99810.63;5047179;28;20036;-21
2021/04/27 03:10:46;;;;;;;15.02;11.23;;;;;;;12.18;52.75;99792.81;5046842;28;20017;-22
2021/04/27 03:13:11;;;;;;;14.10;8.10;;;;;;;12.16;53.39;99773.53;5047170;28;20373;-22
2021/04/27 03:15:37;;;;;;;10.68;7.70;;;;;;;12.14;53.12;99779.09;5047064;28;20481;-22
2021/04/27 03:18:02;;;;;;;12.25;10.30;;;;;;;11.84;53.76;99765.88;5046808;28;20040;-22
2021/04/27 03:20:28;;;;;;;29.40;26.20;;;;;;;11.85;54.19;99792.38;5046611;28;20064;-21
2021/04/27 03:22:53;;;;;;;16.80;10.93;;;;;;;12.06;53.71;99788.28;5046583;28;20087;-22
2021/04/27 03:25:18;;;;;;;13.70;8.07;;;;;;;11.55;54.01;99752.44;5046935;28;20029;-21
2021/04/27 03:27:44;;;;;;;11.50;6.68;;;;;;;11.56;54.66;99764.72;5046672;28;20159;-23
2021/04/27 03:30:10;;;;;;;9.13;5.68;;;;;;;11.73;53.99;99772.03;5046737;28;20029;-22
2021/04/27 03:32:36;;;;;;;19.30;13.05;;;;;;;11.79;54.15;99774.59;5046557;28;20025;-23
2021/04/27 03:35:03;;;;;;;9.40;6.07;;;;;;;11.85;53.53;99746.13;5046883;28;20037;-23
2021/04/27 03:37:28;;;;;;;16.38;9.77;;;;;;;12.12;53.59;99761.69;5046935;28;20032;-23
2021/04/27 03:39:54;;;;;;;8.90;4.90;;;;;;;11.61;54.83;99772.88;5046357;28;20025;-22
2021/04/27 03:42:19;;;;;;;9.00;5.00;;;;;;;11.84;54.23;99757.84;5046328;28;20029;-20
2021/04/27 03:44:45;;;;;;;8.70;5.43;;;;;;;11.76;54.51;99758.22;5046469;28;20025;-22
2021/04/27 03:47:10;;;;;;;10.23;6.15;;;;;;;11.83;54.02;99748.25;5045416;28;20043;-22
2021/04/27 03:49:36;;;;;;;7.15;4.00;;;;;;;11.84;54.65;99744.50;5049727;28;20512;-21
2021/04/27 03:52:01;;;;;;;10.10;5.55;;;;;;;11.97;53.79;99763.00;5050497;28;20041;-22
2021/04/27 03:54:27;;;;;;;10.40;6.05;;;;;;;11.89;54.15;99757.19;5050321;28;20029;-22
2021/04/27 03:56:53;;;;;;;10.75;5.68;;;;;;;11.88;53.89;99775.06;5050020;28;20033;-22
2021/04/27 03:59:18;;;;;;;17.83;13.18;;;;;;;11.76;54.21;99772.38;5050212;28;20044;-22
2021/04/27 04:01:44;;;;;;;18.75;12.30;;;;;;;11.85;54.87;99773.66;5050290;28;20029;-22
2021/04/27 04:04:09;;;;;;;7.07;4.55;;;;;;;12.11;53.49;99776.09;5050272;28;20479;-22
2021/04/27 04:06:34;;;;;;;20.55;11.27;;;;;;;12.32;53.50;99802.19;5049970;28;20029;-21
2021/04/27 04:09:02;;;;;;;19.05;8.25;;;;;;;11.97;53.57;99792.41;5050108;28;20040;-22
2021/04/27 04:11:27;;;;;;;17.55;10.45;;;;;;;12.27;53.19;99807.44;5050112;28;20083;-22
2021/04/27 04:13:52;;;;;;;14.90;9.93;;;;;;;12.35;53.34;99795.56;5048505;28;20076;-21
2021/04/27 04:16:18;;;;;;;22.27;14.98;;;;;;;11.96;54.68;99812.13;5050094;28;20401;-22
2021/04/27 04:18:43;;;;;;;48.25;34.13;;;;;;;12.09;53.96;99813.72;5049885;28;20041;-22
2021/04/27 04:21:09;;;;;;;35.97;25.35;;;;;;;12.01;53.71;99809.59;5050073;28;20028;-22
2021/04/27 04:23:34;;;;;;;20.80;16.15;;;;;;;12.39;53.32;99826.94;5049991;28;20041;-22
2021/04/27 04:26:00;;;;;;;12.57;8.75;;;;;;;12.26;53.75;99828.00;5049863;28;20039;-21
2021/04/27 04:28:25;;;;;;;71.15;45.80;;;;;;;12.44;54.13;99844.94;5049893;28;20416;-22
2021/04/27 04:30:51;;;;;;;10.85;5.18;;;;;;;12.49;54.54;99846.91;5049282;28;20071;-22
2021/04/27 04:33:16;;;;;;;9.25;5.43;;;;;;;12.29;54.91;99842.75;5049623;28;20044;-22
2021/04/27 04:35:42;;;;;;;10.95;4.90;;;;;;;12.12;54.65;99850.69;5049644;28;20029;-21
2021/04/27 04:38:07;;;;;;;29.60;19.35;;;;;;;12.20;54.01;99841.53;5049501;28;20479;-22
2021/04/27 04:40:33;;;;;;;21.73;13.85;;;;;;;11.85;54.04;99863.69;5049178;28;20064;-21
2021/04/27 04:42:58;;;;;;;19.02;13.25;;;;;;;11.79;55.14;99873.44;5049364;28;20076;-21
2021/04/27 04:45:25;;;;;;;22.73;18.52;;;;;;;11.70;55.30;99866.00;5049405;28;20065;-22
2021/04/27 04:47:51;;;;;;;20.98;15.05;;;;;;;11.61;55.57;99858.34;5049113;28;20032;-22
2021/04/27 04:50:16;;;;;;;10.65;5.25;;;;;;;11.92;57.19;99885.78;5049268;28;20114;-22
2021/04/27 04:52:42;;;;;;;13.25;6.65;;;;;;;12.07;57.08;99885.31;5049110;28;20036;-22
2021/04/27 04:55:08;;;;;;;12.63;6.50;;;;;;;12.63;55.44;99880.38;5049155;28;20527;-21
2021/04/27 04:57:35;;;;;;;10.57;5.60;;;;;;;12.70;54.45;99889.06;5049298;28;20069;-20
2021/04/27 05:00:00;;;;;;;20.25;12.57;;;;;;;12.98;54.04;99890.97;5048877;28;20028;-21
2021/04/27 05:02:26;;;;;;;41.90;27.65;;;;;;;12.61;54.46;99893.19;5049237;28;20032;-21
2021/04/27 05:04:52;;;;;;;33.50;21.42;;;;;;;12.68;54.20;99883.13;5048034;28;20520;-20
2021/04/27 05:07:17;;;;;;;57.58;34.90;;;;;;;12.49;55.14;99876.34;5049211;28;20041;-21
2021/04/27 05:09:43;;;;;;;14.32;7.82;;;;;;;12.33;55.61;99902.75;5048925;28;20091;-22
2021/04/27 05:12:08;;;;;;;13.52;7.57;;;;;;;12.42;55.40;99874.63;5048876;28;20041;-21
2021/04/27 05:14:38;;;;;;;37.75;22.50;;;;;;;12.53;54.21;99874.81;5048497;28;20471;-22
2021/04/27 05:17:04;;;;;;;12.70;7.88;;;;;;;13.04;53.17;99867.78;5049154;28;20032;-23
2021/04/27 05:19:29;;;;;;;17.65;11.32;;;;;;;13.15;52.42;99882.97;5048756;28;20032;-22
2021/04/27 05:21:55;;;;;;;13.15;7.38;;;;;;;12.58;54.16;99888.28;5047324;28;20055;-22
2021/04/27 05:24:21;;;;;;;13.23;7.05;;;;;;;12.84;53.62;99909.16;5048524;28;20027;-22
2021/04/27 05:26:47;;;;;;;37.47;18.95;;;;;;;13.19;53.01;99894.00;5048453;28;20028;-21
2021/04/27 05:29:13;;;;;;;19.15;9.50;;;;;;;13.58;51.87;99870.88;5048623;28;20021;-22
2021/04/27 05:31:39;;;;;;;55.72;26.17;;;;;;;13.71;52.06;99875.13;5048707;28;20035;-22
2021/04/27 05:34:05;;;;;;;19.95;9.07;;;;;;;13.79;51.66;99879.22;5048593;28;20112;-22
2021/04/27 05:36:30;;;;;;;14.93;7.97;;;;;;;13.26;52.32;99868.72;5048618;28;20029;-22
2021/04/27 05:38:56;;;;;;;12.23;5.50;;;;;;;13.61;52.77;99873.06;5048212;28;20112;-23
2021/04/27 05:41:21;;;;;;;39.08;16.55;;;;;;;13.54;51.74;99853.66;5048194;28;20488;-22
2021/04/27 05:43:47;;;;;;;15.93;6.88;;;;;;;13.19;52.80;99878.75;5047188;28;20059;-21
2021/04/27 05:46:12;;;;;;;35.65;17.58;;;;;;;13.46;52.81;99873.66;5047213;28;20086;-23
2021/04/27 05:48:37;;;;;;;151.15;61.58;;;;;;;13.66;53.34;99877.69;5047918;28;20823;-21
2021/04/27 05:51:03;;;;;;;15.80;8.00;;;;;;;13.75;51.15;99849.44;5048282;28;20063;-20
2021/04/27 05:53:29;;;;;;;437.45;153.32;;;;;;;14.06;51.11;99864.09;5048231;28;20071;-22
2021/04/27 05:55:54;;;;;;;89.68;32.38;;;;;;;14.36;50.47;99849.47;5046685;28;20086;-22
2021/04/27 05:58:19;;;;;;;15.07;6.65;;;;;;;14.64;48.95;99861.91;5047801;28;20481;-22
2021/04/27 06:00:45;;;;;;;14.90;7.40;;;;;;;14.65;48.87;99868.13;5047885;28;20025;-22
2021/04/27 06:03:10;;;;;;;67.15;22.20;;;;;;;14.24;50.14;99863.00;5047876;28;20025;-22
2021/04/27 06:05:36;;;;;;;34.58;12.63;;;;;;;14.23;50.42;99856.00;5047847;28;20036;-22
2021/04/27 06:08:01;;;;;;;7.82;4.55;;;;;;;13.63;52.38;99862.94;5047709;28;20044;-22
2021/04/27 06:10:27;;;;;;;57.67;26.98;;;;;;;14.01;52.27;99864.00;5047208;28;20029;-22
2021/04/27 06:12:52;;;;;;;122.40;49.67;;;;;;;14.59;50.42;99872.59;5047395;28;20036;-22
2021/04/27 06:15:18;;;;;;;97.80;36.30;;;;;;;15.00;49.21;99864.19;5047602;28;20463;-22
2021/04/27 06:17:44;;;;;;;103.25;44.85;;;;;;;14.67;49.74;99855.25;5047622;28;20032;-20
2021/04/27 06:20:10;;;;;;;84.20;37.60;;;;;;;14.07;49.48;99825.50;5047726;28;20028;-20
2021/04/27 06:22:35;;;;;;;13.25;6.85;;;;;;;13.89;51.94;99833.81;5047645;28;20087;-22
2021/04/27 06:25:01;;;;;;;27.73;14.10;;;;;;;13.64;53.56;99805.59;5046299;28;20036;-21
2021/04/27 06:27:28;;;;;;;11.05;5.28;;;;;;;13.86;53.59;99824.41;5048078;28;20090;-22
2021/04/27 06:29:54;;;;;;;25.48;15.30;;;;;;;14.29;51.64;99819.34;5046526;28;20032;-22
2021/04/27 06:32:19;;;;;;;10.48;5.55;;;;;;;14.04;51.15;99809.91;5047469;28;20037;-22
2021/04/27 06:34:45;;;;;;;8.68;4.75;;;;;;;13.84;52.48;99817.66;5047137;28;20042;-22
2021/04/27 06:37:10;;;;;;;8.70;4.68;;;;;;;13.71;53.03;99809.97;5047727;28;20040;-21
2021/04/27 06:39:36;;;;;;;14.98;7.45;;;;;;;13.63;52.20;99806.66;5047236;28;20405;-22
2021/04/27 06:42:02;;;;;;;11.90;7.43;;;;;;;13.86;52.48;99794.91;5047104;28;20029;-22
2021/04/27 06:44:27;;;;;;;10.68;5.18;;;;;;;14.23;52.80;99806.94;5047745;28;20033;-22
2021/04/27 06:46:53;;;;;;;10.05;5.60;;;;;;;14.31;51.88;99785.03;5046992;28;20036;-21
2021/04/27 06:49:18;;;;;;;8.18;4.35;;;;;;;14.49;52.35;99799.19;5047010;28;20044;-21
2021/04/27 06:51:44;;;;;;;13.25;5.47;;;;;;;14.78;51.53;99789.06;5045643;28;20044;-21
2021/04/27 06:54:09;;;;;;;13.48;6.45;;;;;;;15.25;49.50;99791.91;5045871;28;20033;-21
2021/04/27 06:56:35;;;;;;;25.15;9.93;;;;;;;15.41;48.38;99806.28;5046866;28;20543;-21
2021/04/27 06:59:00;;;;;;;8.75;5.00;;;;;;;15.54;47.84;99793.47;5047436;28;20083;-20
2021/04/27 07:01:25;;;;;;;17.15;10.38;;;;;;;15.17;48.66;99800.44;5047036;28;20091;-21
2021/04/27 07:03:51;;;;;;;17.98;7.00;;;;;;;14.97;49.13;99795.69;5047227;28;20032;-21
2021/04/27 07:06:16;;;;;;;7.78;4.38;;;;;;;14.79;48.17;99810.28;5047112;28;20854;-21
2021/04/27 07:08:42;;;;;;;11.13;5.90;;;;;;;14.96;48.32;99809.38;5046727;28;20041;-21
2021/04/27 07:11:08;;;;;;;15.82;8.68;;;;;;;15.05;47.22;99813.22;5045603;28;20462;-22
2021/04/27 07:13:34;;;;;;;9.98;6.45;;;;;;;14.91;47.77;99820.06;5046819;28;20454;-22
2021/04/27 07:15:59;;;;;;;11.30;6.65;;;;;;;15.08;47.85;99823.47;5047027;28;20037;-22
2021/04/27 07:18:25;;;;;;;11.40;6.65;;;;;;;15.34;47.07;99820.97;5046701;28;20107;-22
2021/04/27 07:20:50;;;;;;;10.15;6.43;;;;;;;15.23;47.55;99810.16;5046621;28;20033;-21
2021/04/27 07:23:16;;;;;;;9.77;5.70;;;;;;;15.20;47.88;99815.22;5049651;28;20029;-22
2021/04/27 07:25:42;;;;;;;17.40;9.30;;;;;;;15.01;47.83;99794.09;5050745;28;20029;-22
2021/04/27 07:28:07;;;;;;;72.38;35.88;;;;;;;15.32;48.73;99793.56;5049585;28;20024;-22
2021/04/27 07:30:33;;;;;;;53.80;25.98;;;;;;;15.87;47.91;99792.34;5050822;28;20480;-23
2021/04/27 07:32:59;;;;;;;68.85;31.58;;;;;;;16.01;47.37;99788.13;5050806;28;20033;-21
2021/04/27 07:35:24;;;;;;;12.98;6.43;;;;;;;16.52;46.62;99808.25;5050989;28;20041;-21
2021/04/27 07:37:50;;;;;;;9.23;4.68;;;;;;;16.70;46.04;99815.84;5050708;28;20037;-21
2021/04/27 07:40:15;;;;;;;8.07;4.70;;;;;;;17.06;45.22;99819.44;5050445;28;20025;-20
2021/04/27 07:42:42;;;;;;;9.00;4.90;;;;;;;16.91;45.28;99805.94;5050824;28;20071;-21
2021/04/27 07:45:08;;;;;;;25.05;19.23;;;;;;;16.97;43.78;99804.06;5050783;28;20057;-21
2021/04/27 07:47:34;;;;;;;12.55;9.05;;;;;;;17.37;43.12;99797.09;5050684;28;20021;-21
2021/04/27 07:49:59;;;;;;;11.10;6.43;;;;;;;17.14;43.23;99787.63;5050081;28;20502;-21
2021/04/27 07:52:26;;;;;;;10.32;4.93;;;;;;;17.60;40.74;99791.13;5050365;28;20414;-21
2021/04/27 07:54:52;;;;;;;9.15;4.65;;;;;;;18.04;41.46;99789.69;5050168;28;20382;-21
2021/04/27 07:57:18;;;;;;;10.10;4.43;;;;;;;17.51;41.59;99776.59;5050535;28;20029;-21
2021/04/27 07:59:43;;;;;;;8.70;5.80;;;;;;;17.82;41.03;99784.63;5050253;28;20032;-21
2021/04/27 08:02:09;;;;;;;7.90;4.82;;;;;;;17.34;41.54;99771.47;5050294;28;20059;-22
2021/04/27 08:04:34;;;;;;;17.90;9.05;;;;;;;17.37;43.30;99787.13;5049926;28;20045;-21
2021/04/27 08:06:59;;;;;;;19.33;7.82;;;;;;;17.47;43.43;99786.31;5050102;28;20409;-21
2021/04/27 08:09:25;;;;;;;15.70;7.57;;;;;;;17.74;43.15;99796.78;5049886;28;20094;-22
2021/04/27 08:11:51;;;;;;;11.10;5.82;;;;;;;17.40;41.65;99793.84;5050069;28;20029;-22
2021/04/27 08:14:18;;;;;;;21.65;8.10;;;;;;;17.63;43.21;99793.28;5050154;28;20036;-21
2021/04/27 08:16:43;;;;;;;18.38;9.02;;;;;;;17.81;43.44;99799.19;5049889;28;20550;-21
2021/04/27 08:19:09;;;;;;;23.98;10.07;;;;;;;17.78;43.00;99770.06;5050115;28;20033;-21
2021/04/27 08:21:34;;;;;;;15.27;8.73;;;;;;;17.92;42.90;99783.78;5049728;28;20468;-20
2021/04/27 08:24:00;;;;;;;12.10;6.10;;;;;;;18.19;44.82;99791.53;5049868;28;20095;-20
2021/04/27 08:26:26;;;;;;;11.55;6.60;;;;;;;18.39;41.20;99801.47;5050733;28;20032;-21
2021/04/27 08:28:51;;;;;;;11.07;7.93;;;;;;;18.38;41.59;99752.03;5049483;28;20036;-22
2021/04/27 08:31:17;;;;;;;8.13;4.22;;;;;;;18.90;41.14;99768.78;5049653;28;20063;-22
2021/04/27 08:33:42;;;;;;;9.18;5.28;;;;;;;19.17;40.45;99762.88;5048660;28;20041;-22
2021/04/27 08:36:08;;;;;;;64.07;34.83;;;;;;;19.45;40.59;99764.00;5049582;28;20508;-21
2021/04/27 08:38:34;;;;;;;5.75;4.10;;;;;;;18.96;39.36;99745.19;5049226;28;20098;-21
2021/04/27 08:41:00;;;;;;;8.25;4.65;;;;;;;19.96;39.84;99767.25;5049567;28;20108;-21
2021/04/27 08:43:25;;;;;;;7.15;4.45;;;;;;;19.42;40.27;99752.94;5049404;28;20059;-22
2021/04/27 08:45:51;;;;;;;8.45;4.47;;;;;;;19.27;40.17;99751.19;5049457;28;20025;-21
2021/04/27 08:48:16;;;;;;;10.18;4.47;;;;;;;19.56;39.98;99764.69;5049140;28;20102;-21
2021/04/27 08:50:42;;;;;;;11.07;5.25;;;;;;;19.85;38.80;99766.56;5049175;28;20055;-21
2021/04/27 08:53:08;;;;;;;6.90;4.00;;;;;;;20.21;39.04;99768.88;5049273;28;20116;-21
2021/04/27 08:55:34;;;;;;;12.82;5.60;;;;;;;19.89;38.58;99745.97;5049591;28;20094;-21
2021/04/27 08:57:59;;;;;;;9.90;5.20;;;;;;;20.21;39.19;99774.28;5049302;28;20070;-21
2021/04/27 09:00:25;;;;;;;9.20;4.80;;;;;;;20.01;37.67;99757.19;5049064;28;20028;-20
2021/04/27 09:02:58;;;;;;;6.93;3.92;;;;;;;20.38;37.37;99773.78;5048949;28;20025;-20
2021/04/27 09:05:26;;;;;;;8.88;4.38;;;;;;;20.17;39.29;99763.22;5048988;28;20025;-20
2021/04/27 09:07:52;;;;;;;7.38;4.30;;;;;;;19.97;40.09;99753.44;5049209;28;20036;-21
2021/04/27 09:10:32;;;;;;;6.25;3.92;;;;;;;19.96;39.32;99753.72;5049072;28;20116;-21
2021/04/27 09:13:09;;;;;;;7.57;3.58;;;;;;;20.16;38.17;99745.34;5049574;28;20032;-21
2021/04/27 09:15:55;;;;;;;6.80;3.37;;;;;;;20.23;37.30;99745.81;5048815;28;20100;-21
2021/04/27 09:18:21;;;;;;;8.43;3.60;;;;;;;20.38;36.72;99728.56;5048732;28;20037;-21
2021/04/27 09:21:19;;;;;;;6.65;3.83;;;;;;;20.19;38.68;99722.34;5048547;28;20063;-21
2021/04/27 09:23:44;;;;;;;7.53;3.80;;;;;;;20.36;36.87;99736.16;5048411;28;20048;-21
2021/04/27 09:26:18;;;;;;;5.25;3.47;;;;;;;20.74;36.77;99735.38;5048496;28;20469;-21
2021/04/27 09:28:50;;;;;;;13.90;7.65;;;;;;;21.10;36.17;99723.97;5048443;28;20757;-21
2021/04/27 09:31:32;;;;;;;10.02;4.50;;;;;;;21.61;35.38;99685.09;5048510;28;20057;-20
2021/04/27 09:34:26;;;;;;;7.00;3.58;;;;;;;21.48;37.10;99716.53;5048546;28;20033;-21
2021/04/27 09:37:05;;;;;;;7.28;4.07;;;;;;;21.94;35.91;99715.63;5048272;28;20055;-21
2021/04/27 09:39:31;;;;;;;53.17;28.67;;;;;;;22.06;34.15;99707.75;5048488;28;20060;-21
2021/04/27 09:42:16;;;;;;;7.65;3.60;;;;;;;22.31;34.28;99710.25;5048345;28;20040;-21
2021/04/27 09:44:50;;;;;;;6.80;4.25;;;;;;;22.89;33.82;99703.22;5047981;28;20054;-21
2021/04/27 09:47:23;;;;;;;6.22;3.20;;;;;;;22.52;34.13;99700.56;5048214;28;20085;-21
2021/04/27 09:49:56;;;;;;;5.68;3.30;;;;;;;22.85;32.30;99694.88;5048129;28;20087;-21
2021/04/27 09:52:22;;;;;;;9.55;3.55;;;;;;;22.51;32.89;99687.25;5048486;28;20443;-21
2021/04/27 09:55:05;;;;;;;5.80;3.25;;;;;;;22.67;32.60;99700.19;5046673;28;20037;-21
2021/04/27 09:57:33;;;;;;;7.25;3.20;;;;;;;23.57;31.97;99682.94;5048189;28;20036;-20
2021/04/27 10:00:17;;;;;;;;;;;;;;;24.26;30.72;99676.06;5048457;28;20139;-21
2021/04/27 10:02:43;;;;;;;7.85;3.42;;;;;;;23.74;30.78;99657.69;5047917;28;19964;-20
2021/04/27 10:05:08;;;;;;;6.57;3.55;;;;;;;23.51;30.31;99667.88;5048078;28;20029;-21
2021/04/27 10:07:34;;;;;;;7.03;3.47;;;;;;;24.10;30.64;99667.56;5047899;28;20032;-21
2021/04/27 10:09:59;;;;;;;5.50;3.25;;;;;;;24.46;30.45;99675.41;5046405;28;20082;-21
2021/04/27 10:12:25;;;;;;;9.68;3.53;;;;;;;24.57;28.99;99670.47;5047839;28;20033;-21
2021/04/27 10:14:50;;;;;;;5.05;3.10;;;;;;;24.39;30.17;99647.03;5046166;28;20033;-21
2021/04/27 10:17:19;;;;;;;6.78;3.50;;;;;;;24.65;29.05;99638.88;5029946;28;20043;-21
2021/04/27 10:19:44;;;;;;;5.43;3.30;;;;;;;24.70;29.49;99651.53;5030333;28;20029;-21
2021/04/27 10:22:11;;;;;;;7.15;3.10;;;;;;;24.59;28.06;99646.41;5029641;28;20029;-21
2021/04/27 10:24:37;;;;;;;6.50;3.35;;;;;;;24.85;28.38;99640.91;5047088;28;20033;-21
2021/04/27 10:27:02;;;;;;;7.55;3.40;;;;;;;24.57;27.88;99647.88;5029521;28;20037;-21
2021/04/27 10:29:28;;;;;;;6.43;3.20;;;;;;;25.02;28.44;99647.44;5046379;28;20021;-30
2021/04/27 10:32:19;;;;;;;4.82;2.70;;;;;;;25.54;26.00;99641.81;5047939;28;20033;-21
2021/04/27 10:34:57;;;;;;;7.22;3.20;;;;;;;25.83;27.73;99642.94;5047117;28;20048;-21
2021/04/27 10:37:23;;;;;;;6.55;3.08;;;;;;;25.82;26.52;99635.84;5047284;28;20041;-21
2021/04/27 10:39:49;;;;;;;6.25;2.80;;;;;;;26.14;24.65;99628.09;5047421;28;20116;-20
2021/04/27 10:42:21;;;;;;;5.78;3.17;;;;;;;25.78;26.79;99634.91;5046291;28;20413;-21
2021/04/27 10:44:54;;;;;;;7.88;3.17;;;;;;;26.02;27.32;99634.28;5047242;28;20032;-20
2021/04/27 10:47:20;;;;;;;5.82;2.83;;;;;;;25.33;26.67;99617.16;5047096;28;20021;-20
2021/04/27 10:49:46;;;;;;;6.32;3.05;;;;;;;25.52;24.47;99610.47;5045673;28;20048;-20
2021/04/27 10:52:34;;;;;;;6.82;2.83;;;;;;;25.35;25.97;99600.47;5047349;28;20508;-20
2021/04/27 10:55:26;;;;;;;3.83;2.45;;;;;;;24.93;26.78;99624.84;5047227;28;20040;-21
2021/04/27 10:57:52;;;;;;;5.38;3.05;;;;;;;24.74;28.21;99622.50;5045080;28;20025;-20
2021/04/27 11:00:43;;;;;;;6.65;2.75;;;;;;;24.34;27.29;99622.69;5047061;28;20048;-21
2021/04/27 11:03:28;;;;;;;5.65;2.88;;;;;;;24.85;28.11;99618.31;5047204;28;20107;-21
2021/04/27 11:06:00;;;;;;;5.80;2.83;;;;;;;25.15;26.49;99610.97;5046926;28;20526;-21
2021/04/27 11:08:50;;;;;;;7.13;2.88;;;;;;;25.84;27.39;99611.72;5047027;28;20032;-21
2021/04/27 11:11:34;;;;;;;8.05;2.80;;;;;;;25.65;27.41;99610.25;5047102;28;20058;-21
2021/04/27 11:14:11;;;;;;;7.90;3.63;;;;;;;25.85;27.69;99592.28;5046923;28;20025;-21
2021/04/27 11:16:37;;;;;;;;;;;;;;;25.28;26.67;99592.00;5047148;28;20035;-20
2021/04/27 11:19:32;;;;;;;6.28;3.22;;;;;;;24.90;28.16;99595.50;5047208;28;20660;-20
2021/04/27 11:22:23;;;;;;;8.32;3.05;;;;;;;24.17;28.39;99590.78;5045774;28;20041;-21
2021/04/27 11:24:51;;;;;;;13.15;7.28;;;;;;;24.13;30.44;99579.75;5046385;28;20033;-21
2021/04/27 11:27:20;;;;;;;6.03;2.80;;;;;;;24.10;28.80;99574.13;5046764;28;20448;-21
2021/04/27 11:29:56;;;;;;;15.30;3.60;;;;;;;24.78;27.89;99555.25;5046844;28;20045;-21
2021/04/27 11:32:22;;;;;;;5.47;3.05;;;;;;;24.77;27.36;99564.59;5046986;28;20032;-20